sensor_id;sensor_type;location;lat;lon;timestamp;temperature;humidity
18894;DHT22;9579;49.488;8.226;2024-02-23T00:00:17;9.20;99.90
18894;DHT22;9579;49.488;8.226;2024-02-23T00:03:05;9.20;99.90
18894;DHT22;9579;49.488;8.226;2024-02-23T00:05:52;9.30;99.90
18894;DHT22;9579;49.488;8.226;2024-02-23T00:08:40;9.70;99.90
18894;DHT22;9579;49.488;8.226;2024-02-23T00:11:27;9.40;99.90
18894;DHT22;9579;49.488;8.226;2024-02-23T00:14:15;9.40;99.90
18894;DHT22;9579;49.488;8.226;2024-02-23T00:17:02;9.40;99.90
18894;DHT22;9579;49.488;8.226;2024-02-23T00:19:49;9.30;99.90
18894;DHT22;9579;49.488;8.226;2024-02-23T00:22:38;9.30;99.90
18894;DHT22;9579;49.488;8.226;2024-02-23T00:25:27;9.30;99.90
18894;DHT22;9579;49.488;8.226;2024-02-23T00:28:15;9.40;99.90
18894;DHT22;9579;49.488;8.226;2024-02-23T00:31:02;9.30;99.90
18894;DHT22;9579;49.488;8.226;2024-02-23T00:33:49;9.30;99.90
18894;DHT22;9579;49.488;8.226;2024-02-23T00:36:36;9.20;99.90
18894;DHT22;9579;49.488;8.226;2024-02-23T00:39:23;9.10;99.90
18894;DHT22;9579;49.488;8.226;2024-02-23T00:42:12;9.10;99.90
18894;DHT22;9579;49.488;8.226;2024-02-23T00:44:59;9.00;99.90
18894;DHT22;9579;49.488;8.226;2024-02-23T00:47:46;8.90;99.90
18894;DHT22;9579;49.488;8.226;2024-02-23T00:50:33;9.00;99.90
18894;DHT22;9579;49.488;8.226;2024-02-23T00:53:20;9.00;99.90
18894;DHT22;9579;49.488;8.226;2024-02-23T00:56:07;8.90;99.90
18894;DHT22;9579;49.488;8.226;2024-02-23T00:58:56;8.90;99.90
18894;DHT22;9579;49.488;8.226;2024-02-23T01:01:43;8.80;99.90
18894;DHT22;9579;49.488;8.226;2024-02-23T01:04:30;10.40;99.90
18894;DHT22;9579;49.488;8.226;2024-02-23T01:07:17;8.90;99.90
18894;DHT22;9579;49.488;8.226;2024-02-23T01:10:05;8.80;99.90
18894;DHT22;9579;49.488;8.226;2024-02-23T01:12:52;8.80;99.90
18894;DHT22;9579;49.488;8.226;2024-02-23T01:15:41;7.40;99.90
18894;DHT22;9579;49.488;8.226;2024-02-23T01:18:29;8.90;99.90
18894;DHT22;9579;49.488;8.226;2024-02-23T01:21:16;8.90;99.90
18894;DHT22;9579;49.488;8.226;2024-02-23T01:24:07;8.90;99.90
18894;DHT22;9579;49.488;8.226;2024-02-23T01:26:55;6.80;99.90
18894;DHT22;9579;49.488;8.226;2024-02-23T01:29:43;7.50;99.90
18894;DHT22;9579;49.488;8.226;2024-02-23T01:32:32;7.70;99.90
18894;DHT22;9579;49.488;8.226;2024-02-23T01:35:19;7.60;99.90
18894;DHT22;9579;49.488;8.226;2024-02-23T01:38:07;6.60;99.90
18894;DHT22;9579;49.488;8.226;2024-02-23T01:40:54;6.70;99.90
18894;DHT22;9579;49.488;8.226;2024-02-23T01:43:42;5.80;99.90
18894;DHT22;9579;49.488;8.226;2024-02-23T01:46:29;7.40;99.90
18894;DHT22;9579;49.488;8.226;2024-02-23T01:51:54;6.40;99.90
18894;DHT22;9579;49.488;8.226;2024-02-23T01:54:42;6.20;99.90
18894;DHT22;9579;49.488;8.226;2024-02-23T01:57:32;5.30;99.90
18894;DHT22;9579;49.488;8.226;2024-02-23T02:00:26;6.90;99.90
18894;DHT22;9579;49.488;8.226;2024-02-23T02:03:35;5.10;99.90
18894;DHT22;9579;49.488;8.226;2024-02-23T02:06:39;5.00;99.90
18894;DHT22;9579;49.488;8.226;2024-02-23T02:09:36;5.20;99.90
18894;DHT22;9579;49.488;8.226;2024-02-23T02:12:32;7.70;99.90
18894;DHT22;9579;49.488;8.226;2024-02-23T02:15:28;5.50;99.90
18894;DHT22;9579;49.488;8.226;2024-02-23T02:18:27;5.30;99.90
18894;DHT22;9579;49.488;8.226;2024-02-23T02:21:35;6.80;99.90
18894;DHT22;9579;49.488;8.226;2024-02-23T02:24:24;4.80;99.90
18894;DHT22;9579;49.488;8.226;2024-02-23T02:27:35;6.00;99.90
18894;DHT22;9579;49.488;8.226;2024-02-23T02:30:26;6.20;99.90
18894;DHT22;9579;49.488;8.226;2024-02-23T02:33:16;4.50;99.90
18894;DHT22;9579;49.488;8.226;2024-02-23T02:36:03;6.60;99.90
18894;DHT22;9579;49.488;8.226;2024-02-23T02:38:51;6.60;99.90
18894;DHT22;9579;49.488;8.226;2024-02-23T02:41:38;8.10;99.90
18894;DHT22;9579;49.488;8.226;2024-02-23T02:44:27;6.50;99.90
18894;DHT22;9579;49.488;8.226;2024-02-23T02:47:16;6.60;99.90
18894;DHT22;9579;49.488;8.226;2024-02-23T02:50:04;7.50;99.90
18894;DHT22;9579;49.488;8.226;2024-02-23T02:52:53;6.10;99.90
18894;DHT22;9579;49.488;8.226;2024-02-23T02:55:41;6.00;99.90
18894;DHT22;9579;49.488;8.226;2024-02-23T02:58:29;6.10;99.90
18894;DHT22;9579;49.488;8.226;2024-02-23T03:01:18;8.00;99.90
18894;DHT22;9579;49.488;8.226;2024-02-23T03:04:06;5.90;99.90
18894;DHT22;9579;49.488;8.226;2024-02-23T03:06:53;6.60;99.90
18894;DHT22;9579;49.488;8.226;2024-02-23T03:09:43;7.10;99.90
18894;DHT22;9579;49.488;8.226;2024-02-23T03:12:31;6.70;99.90
18894;DHT22;9579;49.488;8.226;2024-02-23T03:15:18;5.90;99.90
18894;DHT22;9579;49.488;8.226;2024-02-23T03:18:09;7.70;99.90
18894;DHT22;9579;49.488;8.226;2024-02-23T03:20:57;7.90;99.90
18894;DHT22;9579;49.488;8.226;2024-02-23T03:23:44;6.90;99.90
18894;DHT22;9579;49.488;8.226;2024-02-23T03:26:32;6.80;99.90
18894;DHT22;9579;49.488;8.226;2024-02-23T03:29:20;6.90;99.90
18894;DHT22;9579;49.488;8.226;2024-02-23T03:32:08;7.00;99.90
18894;DHT22;9579;49.488;8.226;2024-02-23T03:35:08;8.10;99.90
18894;DHT22;9579;49.488;8.226;2024-02-23T03:37:55;7.50;99.90
18894;DHT22;9579;49.488;8.226;2024-02-23T03:40:35;8.10;99.90
18894;DHT22;9579;49.488;8.226;2024-02-23T03:45:58;7.10;99.90
18894;DHT22;9579;49.488;8.226;2024-02-23T03:48:45;7.80;99.90
18894;DHT22;9579;49.488;8.226;2024-02-23T03:51:35;7.20;99.90
18894;DHT22;9579;49.488;8.226;2024-02-23T03:54:25;7.20;99.90
18894;DHT22;9579;49.488;8.226;2024-02-23T03:57:12;8.40;99.90
18894;DHT22;9579;49.488;8.226;2024-02-23T03:59:59;6.00;99.90
18894;DHT22;9579;49.488;8.226;2024-02-23T04:02:47;7.20;99.90
18894;DHT22;9579;49.488;8.226;2024-02-23T04:05:34;8.60;99.90
18894;DHT22;9579;49.488;8.226;2024-02-23T04:08:23;8.90;99.90
18894;DHT22;9579;49.488;8.226;2024-02-23T04:11:12;7.00;99.90
18894;DHT22;9579;49.488;8.226;2024-02-23T04:14:00;7.00;99.90
18894;DHT22;9579;49.488;8.226;2024-02-23T04:16:48;6.90;99.90
18894;DHT22;9579;49.488;8.226;2024-02-23T04:19:35;7.10;99.90
18894;DHT22;9579;49.488;8.226;2024-02-23T04:25:02;7.20;99.90
18894;DHT22;9579;49.488;8.226;2024-02-23T04:27:51;7.20;99.90
18894;DHT22;9579;49.488;8.226;2024-02-23T04:30:38;7.90;99.90
18894;DHT22;9579;49.488;8.226;2024-02-23T04:33:30;6.30;99.90
18894;DHT22;9579;49.488;8.226;2024-02-23T04:40:10;6.20;99.90
18894;DHT22;9579;49.488;8.226;2024-02-23T04:42:58;7.30;99.90
18894;DHT22;9579;49.488;8.226;2024-02-23T04:45:46;8.30;99.90
18894;DHT22;9579;49.488;8.226;2024-02-23T04:48:34;7.30;99.90
18894;DHT22;9579;49.488;8.226;2024-02-23T04:51:28;6.80;99.90
18894;DHT22;9579;49.488;8.226;2024-02-23T04:54:17;7.00;99.90
18894;DHT22;9579;49.488;8.226;2024-02-23T04:57:07;8.10;99.90
18894;DHT22;9579;49.488;8.226;2024-02-23T04:59:54;8.10;99.90
18894;DHT22;9579;49.488;8.226;2024-02-23T05:02:43;7.80;99.90
18894;DHT22;9579;49.488;8.226;2024-02-23T05:05:35;8.10;99.90
18894;DHT22;9579;49.488;8.226;2024-02-23T05:08:23;6.00;99.90
18894;DHT22;9579;49.488;8.226;2024-02-23T05:11:15;7.30;99.90
18894;DHT22;9579;49.488;8.226;2024-02-23T05:14:07;7.20;99.90
18894;DHT22;9579;49.488;8.226;2024-02-23T05:17:01;6.20;99.90
18894;DHT22;9579;49.488;8.226;2024-02-23T05:19:51;7.10;99.90
18894;DHT22;9579;49.488;8.226;2024-02-23T05:22:40;7.80;99.90
18894;DHT22;9579;49.488;8.226;2024-02-23T05:25:29;7.20;99.90
18894;DHT22;9579;49.488;8.226;2024-02-23T05:28:17;7.20;99.90
18894;DHT22;9579;49.488;8.226;2024-02-23T05:34:12;7.40;99.90
18894;DHT22;9579;49.488;8.226;2024-02-23T05:37:00;8.40;99.90
18894;DHT22;9579;49.488;8.226;2024-02-23T05:39:50;6.20;99.90
18894;DHT22;9579;49.488;8.226;2024-02-23T05:42:38;8.70;99.90
18894;DHT22;9579;49.488;8.226;2024-02-23T05:45:27;7.40;99.90
18894;DHT22;9579;49.488;8.226;2024-02-23T05:48:17;8.80;99.90
18894;DHT22;9579;49.488;8.226;2024-02-23T05:51:13;6.20;99.90
18894;DHT22;9579;49.488;8.226;2024-02-23T05:54:04;6.40;99.90
18894;DHT22;9579;49.488;8.226;2024-02-23T05:57:08;8.40;99.90
18894;DHT22;9579;49.488;8.226;2024-02-23T05:59:53;7.90;99.90
18894;DHT22;9579;49.488;8.226;2024-02-23T06:02:41;8.10;99.90
18894;DHT22;9579;49.488;8.226;2024-02-23T06:05:28;7.00;99.90
18894;DHT22;9579;49.488;8.226;2024-02-23T06:08:17;9.50;99.90
18894;DHT22;9579;49.488;8.226;2024-02-23T06:11:04;8.50;99.90
18894;DHT22;9579;49.488;8.226;2024-02-23T06:13:51;8.00;99.90
18894;DHT22;9579;49.488;8.226;2024-02-23T06:16:39;8.10;99.90
18894;DHT22;9579;49.488;8.226;2024-02-23T06:19:26;7.90;99.90
18894;DHT22;9579;49.488;8.226;2024-02-23T06:22:14;8.00;99.90
18894;DHT22;9579;49.488;8.226;2024-02-23T06:25:08;7.90;99.90
18894;DHT22;9579;49.488;8.226;2024-02-23T06:27:58;8.90;99.90
18894;DHT22;9579;49.488;8.226;2024-02-23T06:30:46;7.40;99.90
18894;DHT22;9579;49.488;8.226;2024-02-23T06:33:36;7.40;99.90
18894;DHT22;9579;49.488;8.226;2024-02-23T06:36:36;8.90;99.90
18894;DHT22;9579;49.488;8.226;2024-02-23T06:39:27;9.20;99.90
18894;DHT22;9579;49.488;8.226;2024-02-23T06:42:20;7.50;99.90
18894;DHT22;9579;49.488;8.226;2024-02-23T06:45:19;8.00;99.90
18894;DHT22;9579;49.488;8.226;2024-02-23T06:48:12;8.00;99.90
18894;DHT22;9579;49.488;8.226;2024-02-23T06:51:02;7.70;99.90
18894;DHT22;9579;49.488;8.226;2024-02-23T06:54:03;7.80;99.90
18894;DHT22;9579;49.488;8.226;2024-02-23T06:56:52;8.00;99.90
18894;DHT22;9579;49.488;8.226;2024-02-23T06:59:46;6.30;99.90
18894;DHT22;9579;49.488;8.226;2024-02-23T07:02:36;6.60;99.90
18894;DHT22;9579;49.488;8.226;2024-02-23T07:05:32;8.00;99.90
18894;DHT22;9579;49.488;8.226;2024-02-23T07:08:21;8.00;99.90
18894;DHT22;9579;49.488;8.226;2024-02-23T07:11:10;7.30;99.90
18894;DHT22;9579;49.488;8.226;2024-02-23T07:14:21;7.60;99.90
18894;DHT22;9579;49.488;8.226;2024-02-23T07:17:54;8.10;99.90
18894;DHT22;9579;49.488;8.226;2024-02-23T07:21:13;8.10;99.90
18894;DHT22;9579;49.488;8.226;2024-02-23T07:24:27;8.10;99.90
18894;DHT22;9579;49.488;8.226;2024-02-23T07:27:43;8.10;99.90
18894;DHT22;9579;49.488;8.226;2024-02-23T07:30:32;8.10;99.90
18894;DHT22;9579;49.488;8.226;2024-02-23T07:33:55;7.90;99.90
18894;DHT22;9579;49.488;8.226;2024-02-23T07:37:17;7.90;99.90
18894;DHT22;9579;49.488;8.226;2024-02-23T07:40:29;8.00;99.90
18894;DHT22;9579;49.488;8.226;2024-02-23T07:43:33;8.00;99.90
18894;DHT22;9579;49.488;8.226;2024-02-23T07:46:33;8.00;99.90
18894;DHT22;9579;49.488;8.226;2024-02-23T07:49:44;7.90;99.90
18894;DHT22;9579;49.488;8.226;2024-02-23T07:53:11;7.90;99.90
18894;DHT22;9579;49.488;8.226;2024-02-23T07:56:08;8.00;99.90
18894;DHT22;9579;49.488;8.226;2024-02-23T07:59:14;7.90;99.90
18894;DHT22;9579;49.488;8.226;2024-02-23T08:02:39;8.00;99.90
18894;DHT22;9579;49.488;8.226;2024-02-23T08:05:34;8.10;99.90
18894;DHT22;9579;49.488;8.226;2024-02-23T08:08:26;8.10;99.90
18894;DHT22;9579;49.488;8.226;2024-02-23T08:15:07;8.10;99.90
18894;DHT22;9579;49.488;8.226;2024-02-23T08:25:46;8.40;99.90
18894;DHT22;9579;49.488;8.226;2024-02-23T08:28:59;8.50;99.90
18894;DHT22;9579;49.488;8.226;2024-02-23T08:36:49;8.60;99.90
18894;DHT22;9579;49.488;8.226;2024-02-23T08:39:30;8.50;99.90
18894;DHT22;9579;49.488;8.226;2024-02-23T08:51:44;8.60;99.90
18894;DHT22;9579;49.488;8.226;2024-02-23T08:57:31;9.00;99.90
18894;DHT22;9579;49.488;8.226;2024-02-23T09:08:23;10.10;99.90
18894;DHT22;9579;49.488;8.226;2024-02-23T09:11:15;10.50;99.90
18894;DHT22;9579;49.488;8.226;2024-02-23T09:14:02;10.80;99.90
18894;DHT22;9579;49.488;8.226;2024-02-23T09:16:49;11.00;99.90
18894;DHT22;9579;49.488;8.226;2024-02-23T09:19:37;11.30;99.90
18894;DHT22;9579;49.488;8.226;2024-02-23T09:22:24;11.60;99.90
18894;DHT22;9579;49.488;8.226;2024-02-23T09:25:12;11.80;99.90
18894;DHT22;9579;49.488;8.226;2024-02-23T09:27:59;11.90;99.90
18894;DHT22;9579;49.488;8.226;2024-02-23T09:30:46;11.60;99.90
18894;DHT22;9579;49.488;8.226;2024-02-23T09:33:33;11.40;99.90
18894;DHT22;9579;49.488;8.226;2024-02-23T09:36:20;11.40;99.90
18894;DHT22;9579;49.488;8.226;2024-02-23T09:39:07;11.30;99.90
18894;DHT22;9579;49.488;8.226;2024-02-23T09:41:56;11.10;99.90
18894;DHT22;9579;49.488;8.226;2024-02-23T09:44:44;11.10;99.90
18894;DHT22;9579;49.488;8.226;2024-02-23T09:47:32;11.00;99.90
18894;DHT22;9579;49.488;8.226;2024-02-23T09:50:20;10.90;99.90
18894;DHT22;9579;49.488;8.226;2024-02-23T09:53:11;10.90;99.90
18894;DHT22;9579;49.488;8.226;2024-02-23T09:56:00;10.90;99.90
18894;DHT22;9579;49.488;8.226;2024-02-23T09:58:50;10.90;99.90
18894;DHT22;9579;49.488;8.226;2024-02-23T10:01:37;11.00;99.90
18894;DHT22;9579;49.488;8.226;2024-02-23T10:04:26;11.20;99.90
18894;DHT22;9579;49.488;8.226;2024-02-23T10:07:15;11.50;99.90
18894;DHT22;9579;49.488;8.226;2024-02-23T10:10:02;11.80;99.90
18894;DHT22;9579;49.488;8.226;2024-02-23T10:12:49;11.60;99.90
18894;DHT22;9579;49.488;8.226;2024-02-23T10:15:38;11.60;99.90
18894;DHT22;9579;49.488;8.226;2024-02-23T10:18:25;11.50;99.90
18894;DHT22;9579;49.488;8.226;2024-02-23T10:21:12;11.60;99.90
18894;DHT22;9579;49.488;8.226;2024-02-23T10:23:59;11.90;99.80
18894;DHT22;9579;49.488;8.226;2024-02-23T10:26:46;11.40;99.90
18894;DHT22;9579;49.488;8.226;2024-02-23T10:29:33;11.30;99.90
18894;DHT22;9579;49.488;8.226;2024-02-23T10:32:23;11.40;99.90
18894;DHT22;9579;49.488;8.226;2024-02-23T10:35:13;11.20;99.90
18894;DHT22;9579;49.488;8.226;2024-02-23T10:38:02;11.60;99.90
18894;DHT22;9579;49.488;8.226;2024-02-23T10:40:54;11.50;99.90
18894;DHT22;9579;49.488;8.226;2024-02-23T10:43:45;11.50;99.90
18894;DHT22;9579;49.488;8.226;2024-02-23T10:46:33;11.60;99.80
18894;DHT22;9579;49.488;8.226;2024-02-23T10:49:24;12.30;99.90
18894;DHT22;9579;49.488;8.226;2024-02-23T10:52:12;11.40;99.90
18894;DHT22;9579;49.488;8.226;2024-02-23T10:55:01;12.80;99.90
18894;DHT22;9579;49.488;8.226;2024-02-23T10:57:51;11.40;99.90
18894;DHT22;9579;49.488;8.226;2024-02-23T11:00:39;11.70;99.90
18894;DHT22;9579;49.488;8.226;2024-02-23T11:03:28;11.40;99.80
18894;DHT22;9579;49.488;8.226;2024-02-23T11:06:17;11.50;99.90
18894;DHT22;9579;49.488;8.226;2024-02-23T11:09:07;12.30;99.90
18894;DHT22;9579;49.488;8.226;2024-02-23T11:11:56;11.80;99.90
18894;DHT22;9579;49.488;8.226;2024-02-23T11:14:44;11.80;99.00
18894;DHT22;9579;49.488;8.226;2024-02-23T11:17:32;11.80;99.60
18894;DHT22;9579;49.488;8.226;2024-02-23T11:20:20;11.80;99.00
18894;DHT22;9579;49.488;8.226;2024-02-23T11:23:15;11.80;98.60
18894;DHT22;9579;49.488;8.226;2024-02-23T11:26:05;11.70;99.00
18894;DHT22;9579;49.488;8.226;2024-02-23T11:28:54;11.70;99.40
18894;DHT22;9579;49.488;8.226;2024-02-23T11:31:45;11.90;99.10
18894;DHT22;9579;49.488;8.226;2024-02-23T11:34:34;11.90;99.40
18894;DHT22;9579;49.488;8.226;2024-02-23T11:37:21;12.00;98.80
18894;DHT22;9579;49.488;8.226;2024-02-23T11:40:11;11.90;98.60
18894;DHT22;9579;49.488;8.226;2024-02-23T11:42:59;11.80;98.60
18894;DHT22;9579;49.488;8.226;2024-02-23T11:45:47;11.70;99.20
18894;DHT22;9579;49.488;8.226;2024-02-23T11:48:34;12.00;99.20
18894;DHT22;9579;49.488;8.226;2024-02-23T11:51:21;11.40;99.20
18894;DHT22;9579;49.488;8.226;2024-02-23T11:54:09;11.40;99.50
18894;DHT22;9579;49.488;8.226;2024-02-23T11:56:57;11.40;99.20
18894;DHT22;9579;49.488;8.226;2024-02-23T11:59:46;11.50;99.30
18894;DHT22;9579;49.488;8.226;2024-02-23T12:02:34;11.50;99.20
18894;DHT22;9579;49.488;8.226;2024-02-23T12:05:22;11.60;99.20
18894;DHT22;9579;49.488;8.226;2024-02-23T12:08:09;11.70;99.50
18894;DHT22;9579;49.488;8.226;2024-02-23T12:10:56;11.70;99.90
18894;DHT22;9579;49.488;8.226;2024-02-23T12:13:47;11.70;99.70
18894;DHT22;9579;49.488;8.226;2024-02-23T12:16:34;11.70;99.40
18894;DHT22;9579;49.488;8.226;2024-02-23T12:19:22;11.80;99.50
18894;DHT22;9579;49.488;8.226;2024-02-23T12:22:10;11.70;99.50
18894;DHT22;9579;49.488;8.226;2024-02-23T12:24:57;11.80;99.10
18894;DHT22;9579;49.488;8.226;2024-02-23T12:27:45;11.80;99.90
18894;DHT22;9579;49.488;8.226;2024-02-23T12:30:33;11.80;99.90
18894;DHT22;9579;49.488;8.226;2024-02-23T12:33:20;11.70;99.90
18894;DHT22;9579;49.488;8.226;2024-02-23T12:36:08;11.70;99.90
18894;DHT22;9579;49.488;8.226;2024-02-23T12:38:55;11.50;99.90
18894;DHT22;9579;49.488;8.226;2024-02-23T12:41:42;11.50;99.90
18894;DHT22;9579;49.488;8.226;2024-02-23T12:44:29;11.80;99.90
18894;DHT22;9579;49.488;8.226;2024-02-23T12:47:17;12.40;99.90
18894;DHT22;9579;49.488;8.226;2024-02-23T12:50:06;12.50;99.90
18894;DHT22;9579;49.488;8.226;2024-02-23T12:52:53;12.40;99.90
18894;DHT22;9579;49.488;8.226;2024-02-23T12:55:41;12.30;99.60
18894;DHT22;9579;49.488;8.226;2024-02-23T12:58:28;12.20;99.80
18894;DHT22;9579;49.488;8.226;2024-02-23T13:01:15;12.10;99.40
18894;DHT22;9579;49.488;8.226;2024-02-23T13:04:03;11.90;99.70
18894;DHT22;9579;49.488;8.226;2024-02-23T13:06:55;11.80;99.90
18894;DHT22;9579;49.488;8.226;2024-02-23T13:09:45;11.80;99.90
18894;DHT22;9579;49.488;8.226;2024-02-23T13:12:32;11.90;99.90
18894;DHT22;9579;49.488;8.226;2024-02-23T13:15:20;11.80;99.90
18894;DHT22;9579;49.488;8.226;2024-02-23T13:18:07;11.90;99.90
18894;DHT22;9579;49.488;8.226;2024-02-23T13:20:59;12.00;99.90
18894;DHT22;9579;49.488;8.226;2024-02-23T13:23:46;11.70;99.90
18894;DHT22;9579;49.488;8.226;2024-02-23T13:26:33;12.20;99.90
18894;DHT22;9579;49.488;8.226;2024-02-23T13:29:21;11.60;99.90
18894;DHT22;9579;49.488;8.226;2024-02-23T13:32:13;13.10;99.90
18894;DHT22;9579;49.488;8.226;2024-02-23T13:35:01;11.70;99.90
18894;DHT22;9579;49.488;8.226;2024-02-23T13:37:52;13.70;99.90
18894;DHT22;9579;49.488;8.226;2024-02-23T14:02:53;14.90;96.10
18894;DHT22;9579;49.488;8.226;2024-02-23T14:05:44;15.40;94.80
18894;DHT22;9579;49.488;8.226;2024-02-23T14:08:33;16.00;94.40
18894;DHT22;9579;49.488;8.226;2024-02-23T14:11:20;17.50;93.50
18894;DHT22;9579;49.488;8.226;2024-02-23T14:14:07;17.80;94.00
18894;DHT22;9579;49.488;8.226;2024-02-23T14:16:54;18.10;90.50
18894;DHT22;9579;49.488;8.226;2024-02-23T14:19:43;18.20;90.60
18894;DHT22;9579;49.488;8.226;2024-02-23T14:22:30;18.20;90.30
18894;DHT22;9579;49.488;8.226;2024-02-23T14:25:17;18.30;90.30
18894;DHT22;9579;49.488;8.226;2024-02-23T14:28:04;19.60;90.60
18894;DHT22;9579;49.488;8.226;2024-02-23T14:30:51;18.90;86.30
18894;DHT22;9579;49.488;8.226;2024-02-23T14:33:39;19.50;88.10
18894;DHT22;9579;49.488;8.226;2024-02-23T14:36:27;19.60;85.30
18894;DHT22;9579;49.488;8.226;2024-02-23T14:39:19;18.10;85.90
18894;DHT22;9579;49.488;8.226;2024-02-23T14:42:07;17.00;87.00
18894;DHT22;9579;49.488;8.226;2024-02-23T14:48:15;15.10;90.50
18894;DHT22;9579;49.488;8.226;2024-02-23T14:51:02;13.90;91.10
18894;DHT22;9579;49.488;8.226;2024-02-23T14:53:52;13.90;93.40
18894;DHT22;9579;49.488;8.226;2024-02-23T14:56:39;13.60;94.60
18894;DHT22;9579;49.488;8.226;2024-02-23T15:02:06;13.70;95.10
18894;DHT22;9579;49.488;8.226;2024-02-23T15:05:47;13.00;95.40
18894;DHT22;9579;49.488;8.226;2024-02-23T15:19:30;13.30;93.90
18894;DHT22;9579;49.488;8.226;2024-02-23T15:26:07;13.80;94.80
18894;DHT22;9579;49.488;8.226;2024-02-23T15:29:23;13.70;93.50
18894;DHT22;9579;49.488;8.226;2024-02-23T15:32:15;13.90;93.70
18894;DHT22;9579;49.488;8.226;2024-02-23T15:35:18;14.70;93.40
18894;DHT22;9579;49.488;8.226;2024-02-23T15:38:07;12.80;93.00
18894;DHT22;9579;49.488;8.226;2024-02-23T15:40:58;12.30;93.20
18894;DHT22;9579;49.488;8.226;2024-02-23T15:43:49;13.10;93.60
18894;DHT22;9579;49.488;8.226;2024-02-23T15:57:13;12.70;95.20
18894;DHT22;9579;49.488;8.226;2024-02-23T16:00:04;12.50;96.10
18894;DHT22;9579;49.488;8.226;2024-02-23T16:02:59;12.50;96.00
18894;DHT22;9579;49.488;8.226;2024-02-23T16:29:18;12.40;96.70
18894;DHT22;9579;49.488;8.226;2024-02-23T16:32:09;12.50;96.60
18894;DHT22;9579;49.488;8.226;2024-02-23T16:40:04;11.90;96.80
18894;DHT22;9579;49.488;8.226;2024-02-23T16:42:54;12.20;97.30
18894;DHT22;9579;49.488;8.226;2024-02-23T16:45:45;12.30;97.80
18894;DHT22;9579;49.488;8.226;2024-02-23T16:51:22;11.80;97.30
18894;DHT22;9579;49.488;8.226;2024-02-23T16:54:09;13.00;97.80
18894;DHT22;9579;49.488;8.226;2024-02-23T16:57:02;11.40;97.20
18894;DHT22;9579;49.488;8.226;2024-02-23T16:59:52;11.10;96.50
18894;DHT22;9579;49.488;8.226;2024-02-23T17:02:42;11.60;96.60
18894;DHT22;9579;49.488;8.226;2024-02-23T17:05:38;10.30;96.40
18894;DHT22;9579;49.488;8.226;2024-02-23T17:08:26;10.80;97.10
18894;DHT22;9579;49.488;8.226;2024-02-23T17:11:17;11.30;97.70
18894;DHT22;9579;49.488;8.226;2024-02-23T17:14:06;12.50;97.90
18894;DHT22;9579;49.488;8.226;2024-02-23T17:16:54;11.10;97.50
18894;DHT22;9579;49.488;8.226;2024-02-23T17:19:44;10.40;97.30
18894;DHT22;9579;49.488;8.226;2024-02-23T17:22:32;11.40;97.80
18894;DHT22;9579;49.488;8.226;2024-02-23T17:25:23;10.40;97.00
18894;DHT22;9579;49.488;8.226;2024-02-23T17:28:15;10.70;97.50
18894;DHT22;9579;49.488;8.226;2024-02-23T17:31:02;12.10;98.50
18894;DHT22;9579;49.488;8.226;2024-02-23T17:33:50;9.50;98.10
18894;DHT22;9579;49.488;8.226;2024-02-23T17:36:39;11.20;98.20
18894;DHT22;9579;49.488;8.226;2024-02-23T17:39:29;10.30;98.00
18894;DHT22;9579;49.488;8.226;2024-02-23T17:42:19;10.30;98.40
18894;DHT22;9579;49.488;8.226;2024-02-23T17:45:09;11.70;99.20
18894;DHT22;9579;49.488;8.226;2024-02-23T17:48:02;10.80;99.20
18894;DHT22;9579;49.488;8.226;2024-02-23T17:50:54;10.20;99.10
18894;DHT22;9579;49.488;8.226;2024-02-23T17:53:44;9.90;99.90
18894;DHT22;9579;49.488;8.226;2024-02-23T17:56:35;11.70;99.90
18894;DHT22;9579;49.488;8.226;2024-02-23T17:59:23;11.40;99.90
18894;DHT22;9579;49.488;8.226;2024-02-23T18:02:10;12.20;99.90
18894;DHT22;9579;49.488;8.226;2024-02-23T18:04:58;10.80;99.90
18894;DHT22;9579;49.488;8.226;2024-02-23T18:07:45;10.60;99.90
18894;DHT22;9579;49.488;8.226;2024-02-23T18:10:35;10.10;99.90
18894;DHT22;9579;49.488;8.226;2024-02-23T18:13:24;11.90;99.90
18894;DHT22;9579;49.488;8.226;2024-02-23T18:16:11;10.60;99.90
18894;DHT22;9579;49.488;8.226;2024-02-23T18:19:04;11.70;99.90
18894;DHT22;9579;49.488;8.226;2024-02-23T18:21:54;11.60;99.90
18894;DHT22;9579;49.488;8.226;2024-02-23T18:24:45;11.30;99.90
18894;DHT22;9579;49.488;8.226;2024-02-23T18:27:34;9.70;99.90
18894;DHT22;9579;49.488;8.226;2024-02-23T18:30:21;10.20;99.90
18894;DHT22;9579;49.488;8.226;2024-02-23T18:33:09;12.00;99.90
18894;DHT22;9579;49.488;8.226;2024-02-23T18:35:56;10.60;99.90
18894;DHT22;9579;49.488;8.226;2024-02-23T18:38:44;11.50;99.90
18894;DHT22;9579;49.488;8.226;2024-02-23T18:41:32;11.80;99.90
18894;DHT22;9579;49.488;8.226;2024-02-23T18:44:21;10.70;99.90
18894;DHT22;9579;49.488;8.226;2024-02-23T18:47:08;10.30;99.90
18894;DHT22;9579;49.488;8.226;2024-02-23T18:49:56;12.30;99.90
18894;DHT22;9579;49.488;8.226;2024-02-23T18:52:43;11.70;99.90
18894;DHT22;9579;49.488;8.226;2024-02-23T18:55:33;10.40;99.90
18894;DHT22;9579;49.488;8.226;2024-02-23T18:58:23;12.30;99.90
18894;DHT22;9579;49.488;8.226;2024-02-23T19:01:12;10.60;99.90
18894;DHT22;9579;49.488;8.226;2024-02-23T19:04:01;10.70;99.90
18894;DHT22;9579;49.488;8.226;2024-02-23T19:06:50;10.30;99.90
18894;DHT22;9579;49.488;8.226;2024-02-23T19:09:38;11.00;99.90
18894;DHT22;9579;49.488;8.226;2024-02-23T19:12:25;9.90;99.90
18894;DHT22;9579;49.488;8.226;2024-02-23T19:15:18;11.20;99.90
18894;DHT22;9579;49.488;8.226;2024-02-23T19:18:06;10.30;99.90
18894;DHT22;9579;49.488;8.226;2024-02-23T19:20:53;10.20;99.90
18894;DHT22;9579;49.488;8.226;2024-02-23T19:23:40;10.30;99.90
18894;DHT22;9579;49.488;8.226;2024-02-23T19:26:28;10.20;99.90
18894;DHT22;9579;49.488;8.226;2024-02-23T19:29:15;10.20;99.90
18894;DHT22;9579;49.488;8.226;2024-02-23T19:32:03;10.20;99.90
18894;DHT22;9579;49.488;8.226;2024-02-23T19:34:52;10.10;99.90
18894;DHT22;9579;49.488;8.226;2024-02-23T19:37:39;10.00;99.90
18894;DHT22;9579;49.488;8.226;2024-02-23T19:40:26;10.00;99.90
18894;DHT22;9579;49.488;8.226;2024-02-23T19:43:13;10.00;99.90
18894;DHT22;9579;49.488;8.226;2024-02-23T19:46:00;9.90;99.90
18894;DHT22;9579;49.488;8.226;2024-02-23T19:48:47;9.80;99.90
18894;DHT22;9579;49.488;8.226;2024-02-23T19:51:35;9.80;99.90
18894;DHT22;9579;49.488;8.226;2024-02-23T19:54:23;9.80;99.90
18894;DHT22;9579;49.488;8.226;2024-02-23T19:57:10;9.70;99.90
18894;DHT22;9579;49.488;8.226;2024-02-23T19:59:57;9.60;99.90
18894;DHT22;9579;49.488;8.226;2024-02-23T20:02:45;9.50;99.90
18894;DHT22;9579;49.488;8.226;2024-02-23T20:05:32;9.50;99.90
18894;DHT22;9579;49.488;8.226;2024-02-23T20:08:20;9.40;99.90
18894;DHT22;9579;49.488;8.226;2024-02-23T20:11:08;9.40;99.90
18894;DHT22;9579;49.488;8.226;2024-02-23T20:13:55;9.60;99.90
18894;DHT22;9579;49.488;8.226;2024-02-23T20:16:42;9.60;99.90
18894;DHT22;9579;49.488;8.226;2024-02-23T20:19:29;9.60;99.90
18894;DHT22;9579;49.488;8.226;2024-02-23T20:22:16;9.60;99.90
18894;DHT22;9579;49.488;8.226;2024-02-23T20:25:06;9.60;99.90
18894;DHT22;9579;49.488;8.226;2024-02-23T20:27:54;9.60;99.90
18894;DHT22;9579;49.488;8.226;2024-02-23T20:30:41;9.60;99.90
18894;DHT22;9579;49.488;8.226;2024-02-23T20:33:28;9.60;99.90
18894;DHT22;9579;49.488;8.226;2024-02-23T20:36:15;9.60;99.90
18894;DHT22;9579;49.488;8.226;2024-02-23T20:39:02;9.50;99.90